Time;durP1;ratioP1;P1;durP2;ratioP2;P2;SDS_P1;SDS_P2;PMS_P1;PMS_P2;Temp;Humidity;BMP_temperature;BMP_pressure;BME280_temperature;BME280_humidity;BME280_pressure;Samples;Min_cycle;Max_cycle;Signal;HPM_P1;HPM_P2
2022/05/30 00:00:42;;;;;;;;;0.00;0.00;;;;;;;;5102219;27;62260;-77
2022/05/30 00:03:08;;;;;;;;;0.00;0.00;;;;;;;;5101440;27;62238;-77
2022/05/30 00:05:33;;;;;;;;;2.00;0.00;;;;;;;;5100727;27;61819;-77
2022/05/30 00:07:59;;;;;;;;;0.00;0.00;;;;;;;;5101677;27;61805;-77
2022/05/30 00:10:24;;;;;;;;;0.00;0.00;;;;;;;;5102279;27;62066;-77
2022/05/30 00:12:49;;;;;;;;;1.00;1.00;;;;;;;;5101472;27;61767;-77
2022/05/30 00:15:17;;;;;;;;;0.75;0.25;;;;;;;;5102048;27;61990;-77
2022/05/30 00:17:42;;;;;;;;;0.00;0.00;;;;;;;;5105255;27;61741;-77
2022/05/30 00:20:08;;;;;;;;;0.00;0.00;;;;;;;;5104082;27;61838;-77
2022/05/30 00:22:33;;;;;;;;;0.00;0.00;;;;;;;;5103579;27;63106;-77
2022/05/30 00:24:59;;;;;;;;;0.00;0.00;;;;;;;;5105290;27;61643;-77
2022/05/30 00:27:24;;;;;;;;;0.00;0.00;;;;;;;;5105837;27;61709;-77
2022/05/30 00:29:49;;;;;;;;;1.75;1.00;;;;;;;;5105319;27;62088;-77
2022/05/30 00:32:15;;;;;;;;;1.75;0.25;;;;;;;;5103038;27;64823;-77
2022/05/30 00:34:40;;;;;;;;;0.00;0.00;;;;;;;;5105230;27;61717;-77
2022/05/30 00:37:05;;;;;;;;;0.00;0.00;;;;;;;;5104963;27;61975;-77
2022/05/30 00:39:32;;;;;;;;;0.50;0.50;;;;;;;;5105114;27;61773;-77
2022/05/30 00:42:06;;;;;;;;;1.75;1.50;;;;;;;;5103097;27;63841;-77
2022/05/30 00:44:33;;;;;;;;;1.00;1.00;;;;;;;;5105149;27;61666;-77
2022/05/30 00:46:58;;;;;;;;;0.00;0.00;;;;;;;;5104613;27;62029;-77
2022/05/30 00:49:23;;;;;;;;;0.00;0.00;;;;;;;;5104946;27;61882;-77
2022/05/30 00:51:51;;;;;;;;;0.25;0.25;;;;;;;;5104415;27;62159;-77
2022/05/30 00:54:20;;;;;;;;;1.75;1.00;;;;;;;;5105007;27;61668;-77
2022/05/30 00:56:48;;;;;;;;;0.75;0.75;;;;;;;;5105304;27;62121;-77
2022/05/30 00:59:13;;;;;;;;;1.75;0.00;;;;;;;;5103367;27;61795;-77
2022/05/30 01:01:39;;;;;;;;;0.25;0.25;;;;;;;;5104000;27;61870;-77
2022/05/30 01:06:51;;;;;;;;;0.25;0.25;;;;;;;;5104991;27;61900;-77
2022/05/30 01:09:26;;;;;;;;;2.00;0.75;;;;;;;;5104446;27;61909;-77
2022/05/30 01:11:52;;;;;;;;;2.00;0.00;;;;;;;;5102705;27;63994;-77
2022/05/30 01:14:18;;;;;;;;;3.00;1.00;;;;;;;;5104485;27;61753;-77
2022/05/30 01:16:43;;;;;;;;;1.00;1.00;;;;;;;;5104439;27;61742;-77
2022/05/30 01:19:17;;;;;;;;;0.00;0.00;;;;;;;;5104419;27;62024;-77
2022/05/30 01:21:51;;;;;;;;;0.00;0.00;;;;;;;;5102768;27;63755;-77
2022/05/30 01:24:36;;;;;;;;;1.00;1.00;;;;;;;;5104493;27;61727;-77
2022/05/30 01:27:19;;;;;;;;;2.00;0.75;;;;;;;;5103073;27;61856;-77
2022/05/30 01:29:46;;;;;;;;;1.00;1.00;;;;;;;;5104325;27;61973;-77
2022/05/30 01:32:20;;;;;;;;;0.75;0.75;;;;;;;;5103354;27;61900;-77
2022/05/30 01:34:45;;;;;;;;;1.25;0.00;;;;;;;;5104539;27;61790;-77
2022/05/30 01:37:10;;;;;;;;;1.00;1.00;;;;;;;;5102332;27;61998;-77
2022/05/30 01:39:35;;;;;;;;;0.00;0.00;;;;;;;;5104101;27;61833;-77
2022/05/30 01:42:01;;;;;;;;;1.00;1.00;;;;;;;;5102287;27;63794;-77
2022/05/30 01:44:27;;;;;;;;;2.75;0.00;;;;;;;;5103955;27;62093;-77
2022/05/30 01:46:52;;;;;;;;;1.00;1.00;;;;;;;;5103791;27;61743;-77
2022/05/30 01:49:17;;;;;;;;;1.00;1.00;;;;;;;;5103783;27;62083;-77
2022/05/30 01:51:43;;;;;;;;;0.00;0.00;;;;;;;;5103497;27;62158;-77
2022/05/30 01:54:08;;;;;;;;;1.00;0.75;;;;;;;;5103876;27;61893;-77
2022/05/30 01:56:34;;;;;;;;;0.50;0.50;;;;;;;;5104241;27;61714;-77
2022/05/30 01:58:59;;;;;;;;;0.25;0.25;;;;;;;;5103964;27;61825;-77
2022/05/30 02:01:26;;;;;;;;;0.00;0.00;;;;;;;;5101509;27;63731;-77
2022/05/30 02:03:52;;;;;;;;;3.00;1.00;;;;;;;;5103745;27;61792;-77
2022/05/30 02:06:19;;;;;;;;;3.25;0.25;;;;;;;;5103853;27;62003;-77
2022/05/30 02:08:44;;;;;;;;;0.50;0.50;;;;;;;;5102262;27;63310;-77
2022/05/30 02:11:10;;;;;;;;;1.00;1.00;;;;;;;;5103046;27;61769;-77
2022/05/30 02:13:37;;;;;;;;;1.00;0.50;;;;;;;;5102187;27;61952;-77
2022/05/30 02:18:47;;;;;;;;;1.50;1.50;;;;;;;;5103644;27;61837;-77
2022/05/30 02:21:13;;;;;;;;;2.75;2.00;;;;;;;;5102838;27;62901;-77
2022/05/30 02:23:38;;;;;;;;;1.00;1.00;;;;;;;;5103589;27;61929;-77
2022/05/30 02:26:03;;;;;;;;;0.25;0.25;;;;;;;;5103696;27;61927;-77
2022/05/30 02:28:29;;;;;;;;;1.00;1.00;;;;;;;;5102099;27;61716;-77
2022/05/30 02:30:54;;;;;;;;;2.00;0.00;;;;;;;;5102656;27;61764;-77
2022/05/30 02:38:47;;;;;;;;;1.00;1.00;;;;;;;;5102727;27;61701;-77
2022/05/30 02:41:12;;;;;;;;;3.00;2.75;;;;;;;;5102484;27;62666;-77
2022/05/30 02:43:39;;;;;;;;;1.00;1.00;;;;;;;;5103129;27;61734;-77
2022/05/30 02:46:04;;;;;;;;;0.25;0.25;;;;;;;;5103198;27;62026;-77
2022/05/30 02:48:30;;;;;;;;;1.00;0.75;;;;;;;;5102852;27;61867;-77
2022/05/30 02:50:55;;;;;;;;;2.00;1.00;;;;;;;;5101192;27;63651;-77
2022/05/30 02:53:20;;;;;;;;;2.00;2.00;;;;;;;;5103184;27;61904;-77
2022/05/30 02:55:45;;;;;;;;;2.25;2.00;;;;;;;;5101737;27;62044;-77
2022/05/30 02:58:11;;;;;;;;;1.75;1.00;;;;;;;;5103210;27;62146;-77
2022/05/30 03:00:36;;;;;;;;;1.50;1.00;;;;;;;;5100463;27;63660;-77
2022/05/30 03:03:01;;;;;;;;;1.00;1.00;;;;;;;;5102847;27;61694;-77
2022/05/30 03:05:26;;;;;;;;;2.00;2.00;;;;;;;;5103120;27;61757;-77
2022/05/30 03:07:52;;;;;;;;;1.00;1.00;;;;;;;;5102808;27;62142;-77
2022/05/30 03:10:17;;;;;;;;;2.50;1.00;;;;;;;;5102033;27;61992;-77
2022/05/30 03:12:43;;;;;;;;;1.50;1.50;;;;;;;;5102567;27;62182;-77
2022/05/30 03:15:08;;;;;;;;;1.00;1.00;;;;;;;;5102853;27;61985;-76
2022/05/30 03:17:34;;;;;;;;;2.00;1.00;;;;;;;;5102511;27;62082;-77
2022/05/30 03:19:59;;;;;;;;;3.00;1.75;;;;;;;;5102014;27;62724;-77
2022/05/30 03:22:24;;;;;;;;;1.50;1.00;;;;;;;;5102709;27;61971;-77
2022/05/30 03:24:50;;;;;;;;;2.25;1.00;;;;;;;;5101317;27;61730;-77
2022/05/30 03:27:15;;;;;;;;;3.00;0.00;;;;;;;;5102849;27;61819;-77
2022/05/30 03:29:40;;;;;;;;;0.00;0.00;;;;;;;;5101736;27;62230;-76
2022/05/30 03:32:05;;;;;;;;;2.00;2.00;;;;;;;;5102368;27;61860;-77
2022/05/30 03:34:31;;;;;;;;;1.00;1.00;;;;;;;;5102639;27;61900;-77
2022/05/30 03:36:56;;;;;;;;;2.00;2.00;;;;;;;;5102807;27;62060;-77
2022/05/30 03:39:21;;;;;;;;;1.00;1.00;;;;;;;;5101420;27;62702;-77
2022/05/30 03:41:46;;;;;;;;;6.00;2.00;;;;;;;;5102152;27;61775;-77
2022/05/30 03:44:12;;;;;;;;;2.00;1.00;;;;;;;;5102716;27;61797;-77
2022/05/30 03:46:37;;;;;;;;;6.50;1.75;;;;;;;;5101031;27;61875;-77
2022/05/30 03:49:03;;;;;;;;;2.50;1.75;;;;;;;;5101624;27;62876;-77
2022/05/30 03:51:28;;;;;;;;;2.00;2.00;;;;;;;;5104146;27;61701;-77
2022/05/30 03:53:54;;;;;;;;;2.00;2.00;;;;;;;;5106084;27;61964;-77
2022/05/30 03:56:19;;;;;;;;;1.50;1.50;;;;;;;;5104501;27;61786;-77
2022/05/30 03:58:44;;;;;;;;;1.50;1.50;;;;;;;;5103765;27;63471;-77
2022/05/30 04:01:10;;;;;;;;;3.00;3.00;;;;;;;;5105970;27;61741;-77
2022/05/30 04:03:35;;;;;;;;;2.50;2.00;;;;;;;;5105676;27;61885;-77
2022/05/30 04:06:01;;;;;;;;;4.00;2.00;;;;;;;;5106123;27;61847;-76
2022/05/30 04:08:26;;;;;;;;;2.50;2.25;;;;;;;;5104743;27;61880;-77
2022/05/30 04:10:51;;;;;;;;;2.50;2.50;;;;;;;;5105369;27;62370;-76
2022/05/30 04:13:17;;;;;;;;;3.50;1.00;;;;;;;;5104476;27;61774;-76
2022/05/30 04:15:42;;;;;;;;;6.25;2.00;;;;;;;;5105688;27;62124;-77
2022/05/30 04:18:08;;;;;;;;;1.50;1.50;;;;;;;;5104785;27;62642;-77
2022/05/30 04:20:33;;;;;;;;;1.25;1.25;;;;;;;;5105417;27;61833;-76
2022/05/30 04:22:59;;;;;;;;;4.50;2.25;;;;;;;;5105546;27;62002;-77
2022/05/30 04:25:25;;;;;;;;;3.00;2.00;;;;;;;;5105502;27;62083;-77
2022/05/30 04:27:50;;;;;;;;;4.75;2.00;;;;;;;;5104816;27;61846;-76
2022/05/30 04:30:16;;;;;;;;;2.75;1.00;;;;;;;;5105307;27;61851;-77
2022/05/30 04:32:41;;;;;;;;;6.00;2.00;;;;;;;;5103596;27;62131;-77
2022/05/30 04:35:07;;;;;;;;;1.00;1.00;;;;;;;;5104358;27;61698;-77
2022/05/30 04:37:33;;;;;;;;;2.00;1.25;;;;;;;;5103092;27;63858;-76
2022/05/30 04:39:58;;;;;;;;;4.00;1.50;;;;;;;;5104175;27;62107;-77
2022/05/30 04:42:24;;;;;;;;;2.00;2.00;;;;;;;;5105351;27;61937;-77
2022/05/30 04:44:49;;;;;;;;;3.00;3.00;;;;;;;;5105125;27;62080;-77
2022/05/30 04:47:14;;;;;;;;;4.50;3.00;;;;;;;;5104240;27;61721;-77
2022/05/30 04:49:39;;;;;;;;;2.25;1.00;;;;;;;;5105024;27;62133;-77
2022/05/30 04:52:05;;;;;;;;;2.00;2.00;;;;;;;;5105072;27;61995;-77
2022/05/30 04:54:31;;;;;;;;;2.50;2.50;;;;;;;;5105001;27;61791;-77
2022/05/30 04:56:56;;;;;;;;;1.00;1.00;;;;;;;;5104247;27;62735;-77
2022/05/30 04:59:21;;;;;;;;;3.25;2.75;;;;;;;;5104567;27;61856;-76
2022/05/30 05:01:47;;;;;;;;;3.50;2.50;;;;;;;;5104343;27;61767;-76
2022/05/30 05:04:12;;;;;;;;;2.50;2.50;;;;;;;;5103706;27;61768;-76
2022/05/30 05:06:38;;;;;;;;;2.00;2.00;;;;;;;;5104132;27;62736;-77
2022/05/30 05:09:18;;;;;;;;;4.75;2.00;;;;;;;;5101969;27;62178;-77
2022/05/30 05:11:47;;;;;;;;;3.00;2.00;;;;;;;;5105065;27;62099;-76
2022/05/30 05:14:13;;;;;;;;;3.50;2.00;;;;;;;;5104782;27;61774;-76
2022/05/30 05:16:38;;;;;;;;;1.25;1.25;;;;;;;;5104116;27;62784;-77
2022/05/30 05:19:04;;;;;;;;;3.00;1.75;;;;;;;;5104057;27;61813;-76
2022/05/30 05:21:31;;;;;;;;;4.00;1.75;;;;;;;;5104602;27;61925;-76
2022/05/30 05:23:57;;;;;;;;;3.50;1.50;;;;;;;;5102918;27;61832;-77
2022/05/30 05:26:22;;;;;;;;;3.50;2.00;;;;;;;;5103503;27;62113;-77
2022/05/30 05:28:48;;;;;;;;;2.50;2.00;;;;;;;;5104383;27;61992;-76
2022/05/30 05:31:21;;;;;;;;;2.25;2.25;;;;;;;;5104142;27;61828;-76
2022/05/30 05:33:46;;;;;;;;;3.50;2.00;;;;;;;;5104042;27;61790;-77
2022/05/30 05:36:11;;;;;;;;;2.75;2.00;;;;;;;;5101527;27;63550;-76
2022/05/30 05:38:36;;;;;;;;;2.50;2.00;;;;;;;;5103219;27;62152;-76
2022/05/30 05:41:06;;;;;;;;;4.00;3.00;;;;;;;;5099868;27;62172;-76
2022/05/30 05:43:31;;;;;;;;;3.00;1.50;;;;;;;;5103367;27;61909;-77
2022/05/30 05:45:56;;;;;;;;;2.75;2.00;;;;;;;;5100685;27;64078;-74
2022/05/30 05:48:22;;;;;;;;;4.00;3.25;;;;;;;;5103163;27;61989;-77
2022/05/30 05:50:48;;;;;;;;;4.00;2.25;;;;;;;;5103656;27;61685;-77
2022/05/30 05:53:14;;;;;;;;;2.50;2.25;;;;;;;;5101682;27;62201;-77
2022/05/30 05:55:41;;;;;;;;;2.00;1.50;;;;;;;;5102875;27;61926;-77
2022/05/30 05:58:06;;;;;;;;;2.00;2.00;;;;;;;;5101524;27;61938;-77
2022/05/30 06:00:33;;;;;;;;;2.00;2.00;;;;;;;;5103183;27;61938;-77
2022/05/30 06:02:58;;;;;;;;;3.00;2.00;;;;;;;;5099996;27;62308;-77
2022/05/30 06:05:23;;;;;;;;;4.00;2.00;;;;;;;;5100637;27;63470;-77
2022/05/30 06:07:49;;;;;;;;;7.25;2.00;;;;;;;;5102428;27;61706;-77
2022/05/30 06:10:15;;;;;;;;;2.00;2.00;;;;;;;;5101298;27;61846;-77
2022/05/30 06:12:45;;;;;;;;;2.00;1.00;;;;;;;;5101829;27;61965;-76
2022/05/30 06:15:15;;;;;;;;;2.00;2.00;;;;;;;;5101859;27;61722;-76
2022/05/30 06:17:41;;;;;;;;;4.00;2.00;;;;;;;;5103088;27;61909;-76
2022/05/30 06:20:07;;;;;;;;;2.50;0.50;;;;;;;;5103343;27;61643;-75
2022/05/30 06:22:32;;;;;;;;;2.00;2.00;;;;;;;;5101371;27;61863;-75
2022/05/30 06:24:57;;;;;;;;;4.75;2.00;;;;;;;;5101403;27;63659;-76
2022/05/30 06:27:22;;;;;;;;;4.00;2.00;;;;;;;;5101925;27;62202;-75
2022/05/30 06:29:49;;;;;;;;;1.50;1.25;;;;;;;;5103311;27;61814;-75
2022/05/30 06:32:14;;;;;;;;;3.50;2.00;;;;;;;;5103026;27;62020;-75
2022/05/30 06:34:39;;;;;;;;;11.75;6.75;;;;;;;;5102677;27;61846;-75
2022/05/30 06:37:05;;;;;;;;;3.25;3.00;;;;;;;;5102613;27;62293;-76
2022/05/30 06:39:30;;;;;;;;;2.25;1.75;;;;;;;;5101212;27;62037;-76
2022/05/30 06:41:55;;;;;;;;;2.25;1.00;;;;;;;;5103188;27;61845;-76
2022/05/30 06:44:20;;;;;;;;;2.75;1.25;;;;;;;;5102081;27;61741;-74
2022/05/30 06:46:46;;;;;;;;;4.00;2.00;;;;;;;;5102945;27;62225;-74
2022/05/30 06:49:12;;;;;;;;;6.75;3.00;;;;;;;;5102333;27;61954;-76
2022/05/30 06:51:39;;;;;;;;;2.25;2.25;;;;;;;;5100142;27;61910;-75
2022/05/30 06:54:05;;;;;;;;;5.00;2.00;;;;;;;;5101954;27;61993;-75
2022/05/30 06:56:33;;;;;;;;;2.00;1.00;;;;;;;;5101790;27;61766;-75
2022/05/30 06:58:59;;;;;;;;;3.50;2.50;;;;;;;;5101155;27;62321;-76
2022/05/30 07:01:29;;;;;;;;;6.00;2.00;;;;;;;;5100309;27;61898;-75
2022/05/30 07:03:54;;;;;;;;;1.50;1.50;;;;;;;;5101081;27;62749;-75
2022/05/30 07:06:24;;;;;;;;;2.00;2.00;;;;;;;;5101796;27;61852;-75
2022/05/30 07:08:49;;;;;;;;;3.25;2.00;;;;;;;;5101984;27;62014;-75
2022/05/30 07:11:16;;;;;;;;;5.25;2.00;;;;;;;;5102159;27;62192;-75
2022/05/30 07:13:42;;;;;;;;;2.75;2.75;;;;;;;;5101831;27;62676;-75
2022/05/30 07:16:09;;;;;;;;;2.00;2.00;;;;;;;;5102770;27;62003;-75
2022/05/30 07:18:34;;;;;;;;;1.00;1.00;;;;;;;;5100885;27;62000;-76
2022/05/30 07:21:01;;;;;;;;;5.00;2.00;;;;;;;;5101156;27;62042;-75
2022/05/30 07:23:27;;;;;;;;;5.75;3.00;;;;;;;;5100575;27;63887;-75
2022/05/30 07:25:59;;;;;;;;;3.00;3.00;;;;;;;;5104699;27;61940;-75
2022/05/30 07:28:29;;;;;;;;;1.50;1.50;;;;;;;;5106155;27;61820;-75
2022/05/30 07:30:55;;;;;;;;;5.00;3.00;;;;;;;;5106288;27;61798;-76
2022/05/30 07:33:20;;;;;;;;;3.75;3.75;;;;;;;;5103548;27;63641;-75
2022/05/30 07:35:45;;;;;;;;;3.25;2.00;;;;;;;;5105919;27;62227;-75
2022/05/30 07:38:11;;;;;;;;;1.25;1.00;;;;;;;;5105774;27;61774;-75
2022/05/30 07:40:36;;;;;;;;;2.00;2.00;;;;;;;;5102239;27;62057;-75
2022/05/30 07:43:01;;;;;;;;;1.50;1.00;;;;;;;;5104159;27;64947;-75
2022/05/30 07:45:27;;;;;;;;;1.00;1.00;;;;;;;;5105843;27;61904;-76
2022/05/30 07:47:53;;;;;;;;;0.50;0.50;;;;;;;;5103961;27;61898;-75
2022/05/30 07:50:19;;;;;;;;;4.00;2.00;;;;;;;;5103712;27;61847;-75
2022/05/30 07:52:44;;;;;;;;;2.00;1.00;;;;;;;;5104572;27;61961;-76
2022/05/30 07:55:10;;;;;;;;;3.00;2.00;;;;;;;;5105632;27;61896;-75
2022/05/30 07:57:50;;;;;;;;;3.00;1.00;;;;;;;;5104195;27;62108;-75
2022/05/30 08:00:16;;;;;;;;;1.25;1.25;;;;;;;;5104069;27;61804;-75
2022/05/30 08:02:42;;;;;;;;;2.00;1.00;;;;;;;;5104447;27;61848;-76
2022/05/30 08:05:09;;;;;;;;;0.25;0.25;;;;;;;;5105892;27;62140;-76
2022/05/30 08:07:34;;;;;;;;;1.75;1.75;;;;;;;;5105168;27;61872;-75
2022/05/30 08:10:00;;;;;;;;;4.00;1.25;;;;;;;;5105809;27;61945;-75
2022/05/30 08:12:25;;;;;;;;;1.50;1.00;;;;;;;;5105116;27;61965;-75
2022/05/30 08:14:51;;;;;;;;;1.00;1.00;;;;;;;;5105478;27;62397;-75
2022/05/30 08:17:16;;;;;;;;;1.00;1.00;;;;;;;;5105171;27;61725;-75
2022/05/30 08:19:41;;;;;;;;;1.50;0.75;;;;;;;;5105182;27;61859;-75
2022/05/30 08:22:09;;;;;;;;;1.75;1.00;;;;;;;;5104885;27;62048;-75
2022/05/30 08:24:38;;;;;;;;;1.00;1.00;;;;;;;;5104449;27;61922;-75
2022/05/30 08:27:04;;;;;;;;;0.25;0.25;;;;;;;;5105064;27;61990;-75
2022/05/30 08:29:29;;;;;;;;;2.00;0.25;;;;;;;;5105451;27;61826;-76
2022/05/30 08:31:54;;;;;;;;;1.00;1.00;;;;;;;;5101990;27;64949;-75
2022/05/30 08:34:20;;;;;;;;;3.00;0.00;;;;;;;;5103385;27;61817;-75
2022/05/30 08:36:45;;;;;;;;;1.50;1.00;;;;;;;;5104213;27;61710;-75
2022/05/30 08:41:54;;;;;;;;;0.75;0.75;;;;;;;;5104074;27;61721;-75
2022/05/30 08:44:20;;;;;;;;;0.25;0.25;;;;;;;;5105132;27;61790;-75
2022/05/30 08:46:48;;;;;;;;;2.00;2.00;;;;;;;;5104578;27;61697;-75
2022/05/30 08:49:22;;;;;;;;;0.00;0.00;;;;;;;;5103244;27;62087;-76
2022/05/30 08:51:50;;;;;;;;;2.50;1.00;;;;;;;;5102700;27;63738;-75
2022/05/30 08:54:34;;;;;;;;;0.00;0.00;;;;;;;;5104731;27;61856;-76
2022/05/30 08:57:00;;;;;;;;;1.25;1.00;;;;;;;;5104683;27;61944;-76
2022/05/30 08:59:53;;;;;;;;;0.00;0.00;;;;;;;;5105119;27;61828;-75
2022/05/30 09:02:27;;;;;;;;;0.25;0.25;;;;;;;;5103733;27;61813;-75
2022/05/30 09:04:55;;;;;;;;;1.00;1.00;;;;;;;;5104175;27;61619;-75
2022/05/30 09:07:22;;;;;;;;;0.50;0.25;;;;;;;;5104212;27;61847;-75
2022/05/30 09:09:47;;;;;;;;;0.00;0.00;;;;;;;;5102857;27;61810;-75
2022/05/30 09:12:12;;;;;;;;;0.00;0.00;;;;;;;;5104043;27;62356;-76
2022/05/30 09:14:41;;;;;;;;;1.00;0.00;;;;;;;;5104380;27;62034;-75
2022/05/30 09:17:10;;;;;;;;;0.50;0.50;;;;;;;;5104012;27;61678;-76
2022/05/30 09:19:35;;;;;;;;;1.00;1.00;;;;;;;;5104716;27;61994;-75
2022/05/30 09:22:05;;;;;;;;;0.00;0.00;;;;;;;;5103768;27;62173;-75
2022/05/30 09:24:32;;;;;;;;;1.00;0.00;;;;;;;;5102770;27;61968;-75
2022/05/30 09:26:59;;;;;;;;;0.25;0.25;;;;;;;;5104266;27;61722;-75
2022/05/30 09:29:29;;;;;;;;;0.00;0.00;;;;;;;;5104657;27;61900;-76
2022/05/30 09:32:27;;;;;;;;;0.00;0.00;;;;;;;;5103175;27;62593;-75
2022/05/30 09:34:53;;;;;;;;;0.25;0.00;;;;;;;;5063631;28;62108;-75
2022/05/30 09:37:30;;;;;;;;;1.75;0.00;;;;;;;;5063847;28;61727;-75
2022/05/30 09:39:55;;;;;;;;;0.00;0.00;;;;;;;;5063849;28;61961;-75
2022/05/30 09:42:22;;;;;;;;;0.00;0.00;;;;;;;;5097711;27;63689;-75
2022/05/30 09:44:49;;;;;;;;;1.00;0.00;;;;;;;;5097898;27;62232;-75
2022/05/30 09:47:16;;;;;;;;;0.75;0.75;;;;;;;;5080831;28;61825;-76
2022/05/30 09:49:43;;;;;;;;;0.75;0.00;;;;;;;;5079817;28;61701;-75
2022/05/30 09:52:27;;;;;;;;;1.25;1.00;;;;;;;;5062958;28;63737;-75
2022/05/30 09:54:53;;;;;;;;;1.00;1.00;;;;;;;;5097845;27;61785;-75
2022/05/30 09:57:18;;;;;;;;;2.00;0.00;;;;;;;;5063698;28;62132;-75
2022/05/30 09:59:45;;;;;;;;;0.00;0.00;;;;;;;;5080603;28;61913;-75
2022/05/30 10:02:24;;;;;;;;;1.25;1.25;;;;;;;;5062606;28;63614;-75
2022/05/30 10:05:07;;;;;;;;;0.75;0.00;;;;;;;;5079730;28;61971;-75
2022/05/30 10:07:34;;;;;;;;;0.75;0.75;;;;;;;;5079996;28;62011;-75
2022/05/30 10:10:01;;;;;;;;;0.00;0.00;;;;;;;;5087118;27;61906;-75
2022/05/30 10:12:42;;;;;;;;;0.00;0.00;;;;;;;;5101543;27;65118;-75
2022/05/30 10:15:28;;;;;;;;;0.00;0.00;;;;;;;;5102857;27;62093;-75
2022/05/30 10:17:55;;;;;;;;;1.00;1.00;;;;;;;;5099112;27;61950;-75
2022/05/30 10:20:32;;;;;;;;;0.00;0.00;;;;;;;;5102045;27;62032;-76
2022/05/30 10:29:02;;;;;;;;;0.00;0.00;;;;;;;;5102803;27;61857;-75
2022/05/30 10:31:42;;;;;;;;;4.25;3.00;;;;;;;;5101941;27;62069;-75
2022/05/30 10:34:25;;;;;;;;;0.00;0.00;;;;;;;;5102223;27;62903;-75
2022/05/30 10:36:53;;;;;;;;;0.00;0.00;;;;;;;;5103466;27;61856;-75
2022/05/30 10:39:33;;;;;;;;;0.75;0.00;;;;;;;;5102718;27;62231;-75
2022/05/30 10:42:03;;;;;;;;;1.25;0.00;;;;;;;;5103120;27;61959;-75
2022/05/30 10:44:32;;;;;;;;;0.00;0.00;;;;;;;;5102263;27;62173;-75
2022/05/30 10:47:17;;;;;;;;;0.00;0.00;;;;;;;;5101539;27;61815;-75
2022/05/30 10:49:50;;;;;;;;;0.00;0.00;;;;;;;;5101601;27;61768;-76
2022/05/30 10:52:23;;;;;;;;;0.00;0.00;;;;;;;;5101472;27;61745;-74
2022/05/30 10:54:55;;;;;;;;;0.00;0.00;;;;;;;;5102301;27;61852;-74
2022/05/30 10:57:33;;;;;;;;;0.25;0.25;;;;;;;;5101120;27;61935;-74
2022/05/30 11:00:22;;;;;;;;;0.00;0.00;;;;;;;;5102335;27;62124;-74
2022/05/30 11:02:53;;;;;;;;;1.00;1.00;;;;;;;;5095362;27;61910;-74
2022/05/30 11:05:27;;;;;;;;;0.00;0.00;;;;;;;;5101959;27;61733;-74
2022/05/30 11:08:08;;;;;;;;;0.00;0.00;;;;;;;;5100713;27;61895;-73
2022/05/30 11:10:43;;;;;;;;;0.00;0.00;;;;;;;;5102523;27;61732;-74
2022/05/30 11:13:15;;;;;;;;;0.00;0.00;;;;;;;;5102391;27;61756;-74
2022/05/30 11:15:46;;;;;;;;;1.75;0.00;;;;;;;;5102031;27;62556;-74
2022/05/30 11:18:31;;;;;;;;;0.00;0.00;;;;;;;;5100364;27;61741;-73
2022/05/30 11:21:13;;;;;;;;;0.00;0.00;;;;;;;;5102204;27;61876;-74
2022/05/30 11:23:39;;;;;;;;;0.00;0.00;;;;;;;;5102425;27;61917;-74
2022/05/30 11:26:23;;;;;;;;;0.00;0.00;;;;;;;;5099866;27;63919;-74
2022/05/30 11:28:48;;;;;;;;;0.25;0.25;;;;;;;;5101110;27;61932;-77
2022/05/30 11:31:13;;;;;;;;;0.00;0.00;;;;;;;;5101960;27;62397;-74
2022/05/30 11:33:41;;;;;;;;;0.00;0.00;;;;;;;;5102494;27;61943;-74
2022/05/30 11:36:13;;;;;;;;;1.50;0.25;;;;;;;;5100917;27;65266;-74
2022/05/30 11:38:45;;;;;;;;;0.00;0.00;;;;;;;;5101990;27;61785;-75
2022/05/30 11:41:13;;;;;;;;;2.00;0.00;;;;;;;;5100773;27;61992;-74
2022/05/30 11:43:38;;;;;;;;;0.00;0.00;;;;;;;;5102479;27;61888;-74
2022/05/30 11:46:23;;;;;;;;;0.00;0.00;;;;;;;;5101720;27;61866;-74
2022/05/30 11:48:49;;;;;;;;;0.00;0.00;;;;;;;;5101981;27;62632;-74
2022/05/30 11:51:29;;;;;;;;;0.25;0.00;;;;;;;;5102149;27;61814;-74
2022/05/30 11:54:13;;;;;;;;;0.00;0.00;;;;;;;;5102623;27;61712;-74
2022/05/30 11:56:38;;;;;;;;;0.00;0.00;;;;;;;;5101020;27;61835;-74
2022/05/30 11:59:22;;;;;;;;;0.00;0.00;;;;;;;;5100843;27;61879;-75
2022/05/30 12:01:50;;;;;;;;;0.00;0.00;;;;;;;;5102147;27;61677;-75
2022/05/30 12:04:15;;;;;;;;;0.00;0.00;;;;;;;;5100718;27;62082;-75
2022/05/30 12:06:43;;;;;;;;;0.00;0.00;;;;;;;;5101366;27;62764;-75
2022/05/30 12:09:35;;;;;;;;;0.00;0.00;;;;;;;;5101610;27;62019;-75
2022/05/30 12:12:20;;;;;;;;;1.00;0.00;;;;;;;;5101626;27;61952;-75
2022/05/30 12:14:56;;;;;;;;;0.00;0.00;;;;;;;;5105748;27;61980;-75
2022/05/30 12:17:22;;;;;;;;;0.00;0.00;;;;;;;;5103311;27;63593;-75
2022/05/30 12:25:49;;;;;;;;;0.00;0.00;;;;;;;;5105014;27;62107;-75
2022/05/30 12:28:27;;;;;;;;;0.00;0.00;;;;;;;;5104574;27;61776;-75
2022/05/30 12:30:59;;;;;;;;;0.00;0.00;;;;;;;;5104640;27;62532;-74
2022/05/30 12:33:33;;;;;;;;;0.00;0.00;;;;;;;;5102948;27;61792;-75
2022/05/30 12:36:05;;;;;;;;;4.00;1.00;;;;;;;;5105471;27;62067;-74
2022/05/30 12:38:48;;;;;;;;;0.00;0.00;;;;;;;;5103439;27;61994;-74
2022/05/30 12:41:19;;;;;;;;;0.00;0.00;;;;;;;;5103943;27;61848;-75
2022/05/30 12:43:45;;;;;;;;;0.00;0.00;;;;;;;;5104847;27;62110;-75
2022/05/30 12:46:13;;;;;;;;;1.00;1.00;;;;;;;;5103827;27;61836;-74
2022/05/30 12:48:38;;;;;;;;;0.00;0.00;;;;;;;;5103625;27;61731;-75
2022/05/30 12:51:06;;;;;;;;;0.00;0.00;;;;;;;;5103275;27;62143;-75
2022/05/30 12:53:52;;;;;;;;;0.00;0.00;;;;;;;;5104706;27;61855;-75
2022/05/30 12:56:36;;;;;;;;;0.67;0.00;;;;;;;;5081724;28;62001;-74
2022/05/30 12:59:19;;;;;;;;;0.00;0.00;;;;;;;;5080943;28;62084;-74
2022/05/30 13:01:44;;;;;;;;;0.00;0.00;;;;;;;;5081413;28;62006;-75
2022/05/30 13:04:12;;;;;;;;;1.00;1.00;;;;;;;;5079742;28;62214;-74
2022/05/30 13:06:52;;;;;;;;;0.00;0.00;;;;;;;;5064751;28;61750;-74
2022/05/30 13:09:36;;;;;;;;;1.00;0.00;;;;;;;;5080290;28;61956;-76
2022/05/30 13:12:11;;;;;;;;;0.00;0.00;;;;;;;;5081618;28;61899;-75
2022/05/30 13:14:36;;;;;;;;;3.00;0.67;;;;;;;;5081252;28;61948;-77
2022/05/30 13:17:06;;;;;;;;;0.00;0.00;;;;;;;;5064450;28;61781;-75
2022/05/30 13:19:32;;;;;;;;;0.00;0.00;;;;;;;;5063675;28;63749;-75
2022/05/30 13:21:57;;;;;;;;;1.00;1.00;;;;;;;;5080875;28;62082;-75
2022/05/30 13:24:29;;;;;;;;;0.67;0.67;;;;;;;;5081435;28;62001;-74
2022/05/30 13:26:55;;;;;;;;;1.67;1.00;;;;;;;;5080556;28;62422;-74
2022/05/30 13:29:20;;;;;;;;;0.00;0.00;;;;;;;;5080113;27;62705;-74
2022/05/30 13:31:50;;;;;;;;;1.00;1.00;;;;;;;;5080873;28;62264;-74
2022/05/30 13:34:17;;;;;;;;;1.00;1.00;;;;;;;;5083033;28;62123;-75
2022/05/30 13:36:42;;;;;;;;;0.00;0.00;;;;;;;;5083727;28;62249;-75
2022/05/30 13:39:10;;;;;;;;;0.67;0.67;;;;;;;;5085154;27;63440;-75
2022/05/30 13:41:38;;;;;;;;;0.00;0.00;;;;;;;;5104217;27;61894;-74
2022/05/30 13:44:08;;;;;;;;;0.00;0.00;;;;;;;;5104427;27;62019;-74
2022/05/30 13:46:38;;;;;;;;;0.00;0.00;;;;;;;;5102393;27;61769;-75
2022/05/30 13:49:03;;;;;;;;;3.00;0.00;;;;;;;;5101010;27;62743;-74
2022/05/30 13:51:33;;;;;;;;;0.00;0.00;;;;;;;;5102278;27;61976;-74
2022/05/30 13:53:59;;;;;;;;;1.25;0.25;;;;;;;;5100516;27;61788;-74
2022/05/30 13:56:33;;;;;;;;;0.00;0.00;;;;;;;;5101799;27;61962;-74
2022/05/30 13:59:00;;;;;;;;;0.33;0.00;;;;;;;;5092887;27;62851;-74
2022/05/30 14:01:26;;;;;;;;;0.00;0.00;;;;;;;;5102064;27;61842;-75
2022/05/30 14:04:03;;;;;;;;;0.67;0.00;;;;;;;;5103408;27;61891;-74
2022/05/30 14:06:31;;;;;;;;;0.00;0.00;;;;;;;;5102990;27;61939;-74
2022/05/30 14:08:57;;;;;;;;;1.00;1.00;;;;;;;;5101962;27;61818;-75
2022/05/30 14:11:22;;;;;;;;;0.00;0.00;;;;;;;;5103055;27;61744;-75
2022/05/30 14:13:48;;;;;;;;;0.00;0.00;;;;;;;;5101937;27;61932;-75
2022/05/30 14:16:31;;;;;;;;;0.00;0.00;;;;;;;;5103396;27;61903;-75
2022/05/30 14:19:01;;;;;;;;;0.00;0.00;;;;;;;;5101013;27;62075;-75
2022/05/30 14:21:27;;;;;;;;;0.00;0.00;;;;;;;;5102967;27;61942;-75
2022/05/30 14:23:58;;;;;;;;;0.00;0.00;;;;;;;;5102820;27;62073;-75
2022/05/30 14:26:31;;;;;;;;;1.00;0.00;;;;;;;;5099623;27;61788;-75
2022/05/30 14:29:06;;;;;;;;;0.00;0.00;;;;;;;;5102240;27;63012;-75
2022/05/30 14:31:33;;;;;;;;;0.00;0.00;;;;;;;;5102779;27;61824;-75
2022/05/30 14:34:00;;;;;;;;;0.00;0.00;;;;;;;;5100807;27;61907;-75
2022/05/30 14:36:28;;;;;;;;;0.00;0.00;;;;;;;;5100061;27;62100;-75
2022/05/30 14:38:59;;;;;;;;;0.00;0.00;;;;;;;;5127283;27;63573;-75
2022/05/30 14:41:24;;;;;;;;;0.00;0.00;;;;;;;;5101177;27;61866;-75
2022/05/30 14:43:51;;;;;;;;;1.33;0.00;;;;;;;;5103136;27;61900;-75
2022/05/30 14:46:17;;;;;;;;;0.00;0.00;;;;;;;;5101100;27;62200;-75
2022/05/30 14:48:49;;;;;;;;;0.00;0.00;;;;;;;;5101054;27;61993;-75
2022/05/30 14:51:17;;;;;;;;;0.00;0.00;;;;;;;;5099963;27;61701;-75
2022/05/30 14:53:43;;;;;;;;;0.00;0.00;;;;;;;;5102541;27;61841;-75
2022/05/30 14:56:10;;;;;;;;;0.00;0.00;;;;;;;;5102143;27;62083;-76
2022/05/30 14:58:39;;;;;;;;;0.00;0.00;;;;;;;;5100671;27;63889;-76
2022/05/30 15:01:06;;;;;;;;;0.00;0.00;;;;;;;;5100403;27;62066;-76
2022/05/30 15:06:18;;;;;;;;;0.00;0.00;;;;;;;;5100570;27;62020;-75
2022/05/30 15:08:44;;;;;;;;;0.00;0.00;;;;;;;;5099910;27;65074;-75
2022/05/30 15:11:16;;;;;;;;;0.00;0.00;;;;;;;;5101647;27;61876;-75
2022/05/30 15:13:42;;;;;;;;;0.67;0.00;;;;;;;;5100741;27;61753;-75
2022/05/30 15:16:08;;;;;;;;;0.00;0.00;;;;;;;;5102164;27;61990;-75
2022/05/30 15:18:33;;;;;;;;;0.00;0.00;;;;;;;;5100952;27;61716;-75